createdAt,value
2024-01-01T00:02:05.278Z,8.23
2024-01-01T00:04:32.298Z,8.87
2024-01-01T00:06:59.474Z,8.27
2024-01-01T00:09:26.268Z,7.47
2024-01-01T00:11:52.902Z,7.40
2024-01-01T00:14:21.314Z,7.27
2024-01-01T00:16:49.192Z,7.17
2024-01-01T00:19:16.511Z,7.47
2024-01-01T00:21:43.668Z,7.43
2024-01-01T00:24:10.525Z,9.97
2024-01-01T00:26:37.265Z,12.80
2024-01-01T00:29:05.120Z,11.17
2024-01-01T00:31:32.544Z,10.23
2024-01-01T00:33:59.608Z,8.70
2024-01-01T00:36:26.559Z,9.13
2024-01-01T00:38:54.092Z,9.50
2024-01-01T00:41:20.878Z,8.53
2024-01-01T00:43:49.179Z,8.20
2024-01-01T00:46:15.895Z,7.67
2024-01-01T00:48:42.929Z,7.43
2024-01-01T00:51:09.735Z,7.60
2024-01-01T00:53:39.768Z,7.03
2024-01-01T00:56:08.289Z,6.37
2024-01-01T00:58:35.205Z,5.70
2024-01-01T01:01:03.799Z,5.90
2024-01-01T01:03:32.198Z,5.07
2024-01-01T01:06:05.597Z,6.10
2024-01-01T01:08:38.480Z,5.10
2024-01-01T01:11:05.249Z,5.10
2024-01-01T01:13:32.698Z,4.33
2024-01-01T01:15:59.496Z,4.57
2024-01-01T01:18:26.292Z,4.30
2024-01-01T01:20:53.094Z,4.03
2024-01-01T01:23:20.148Z,4.13
2024-01-01T01:25:46.950Z,3.57
2024-01-01T01:28:24.988Z,3.97
2024-01-01T01:30:52.157Z,3.60
2024-01-01T01:33:19.299Z,3.80
2024-01-01T01:35:46.575Z,3.83
2024-01-01T01:38:13.449Z,3.70
2024-01-01T01:40:40.290Z,3.20
2024-01-01T01:43:21.478Z,3.63
2024-01-01T01:45:50.066Z,3.30
2024-01-01T01:48:18.673Z,3.50
2024-01-01T01:50:46.322Z,7.83
2024-01-01T01:53:14.458Z,3.70
2024-01-01T01:55:46.803Z,3.40
2024-01-01T01:58:14.052Z,3.30
2024-01-01T02:00:40.986Z,3.30
2024-01-01T02:03:09.923Z,3.97
2024-01-01T02:05:36.939Z,2.90
2024-01-01T02:08:04.887Z,2.87
2024-01-01T02:10:31.929Z,3.00
2024-01-01T02:13:00.041Z,3.87
2024-01-01T02:15:27.169Z,3.93
2024-01-01T02:17:53.976Z,3.80
2024-01-01T02:20:21.351Z,4.23
2024-01-01T02:22:48.250Z,4.17
2024-01-01T02:25:17.409Z,4.13
2024-01-01T02:27:44.261Z,5.60
2024-01-01T02:30:13.940Z,4.70
2024-01-01T02:32:41.057Z,5.10
2024-01-01T02:35:10.088Z,3.70
2024-01-01T02:37:37.127Z,3.30
2024-01-01T02:40:04.456Z,3.07
2024-01-01T02:42:31.504Z,3.73
2024-01-01T02:44:58.550Z,3.17
2024-01-01T02:47:25.354Z,3.17
2024-01-01T02:49:52.402Z,2.60
2024-01-01T02:52:19.176Z,2.93
2024-01-01T02:54:48.888Z,3.23
2024-01-01T02:57:15.832Z,2.30
2024-01-01T02:59:42.783Z,3.00
2024-01-01T03:02:10.911Z,2.60
2024-01-01T03:04:38.055Z,2.90
2024-01-01T03:07:05.377Z,2.97
2024-01-01T03:09:32.182Z,3.10
2024-01-01T03:11:58.883Z,2.70
2024-01-01T03:14:25.673Z,3.23
2024-01-01T03:16:52.584Z,3.43
2024-01-01T03:19:19.412Z,3.23
2024-01-01T03:21:46.200Z,2.70
2024-01-01T03:24:13.231Z,3.03
2024-01-01T03:26:39.943Z,3.20
2024-01-01T03:29:06.775Z,3.07
2024-01-01T03:31:33.549Z,3.10
2024-01-01T03:34:00.367Z,3.53
2024-01-01T03:36:27.386Z,3.30
2024-01-01T03:38:54.039Z,2.63
2024-01-01T03:41:21.048Z,3.20
2024-01-01T03:43:47.838Z,2.90
2024-01-01T03:46:14.676Z,3.70
2024-01-01T03:48:41.642Z,3.33
2024-01-01T03:51:08.596Z,3.07
2024-01-01T03:53:35.302Z,3.23
2024-01-01T03:56:02.340Z,4.17
2024-01-01T03:58:29.629Z,3.33
2024-01-01T04:00:57.103Z,3.63
2024-01-01T04:03:23.965Z,3.83
2024-01-01T04:05:50.902Z,4.13
2024-01-01T04:08:17.928Z,4.10
2024-01-01T04:10:44.844Z,3.80
2024-01-01T04:13:11.552Z,4.10
2024-01-01T04:15:38.336Z,4.53
2024-01-01T04:18:05.666Z,4.47
2024-01-01T04:20:32.576Z,4.03
2024-01-01T04:22:59.661Z,3.90
2024-01-01T04:25:26.925Z,4.03
2024-01-01T04:27:53.821Z,4.27
2024-01-01T04:30:20.609Z,4.20
2024-01-01T04:32:47.546Z,3.47
2024-01-01T04:35:14.446Z,4.30
2024-01-01T04:37:41.361Z,3.70
2024-01-01T04:40:08.684Z,3.80
2024-01-01T04:42:35.426Z,3.70
2024-01-01T04:45:02.234Z,3.90
2024-01-01T04:47:29.206Z,4.23
2024-01-01T04:53:27.482Z,3.60
2024-01-01T04:55:54.206Z,3.53
2024-01-01T04:58:21.388Z,3.13
2024-01-01T05:00:48.211Z,3.57
2024-01-01T05:03:15.285Z,3.80
2024-01-01T05:05:42.310Z,4.27
2024-01-01T05:08:10.148Z,3.97
2024-01-01T05:10:37.906Z,4.43
2024-01-01T05:13:04.993Z,4.63
2024-01-01T05:15:31.739Z,3.90
2024-01-01T05:17:58.806Z,4.23
2024-01-01T05:20:26.454Z,4.27
2024-01-01T05:22:53.844Z,3.60
2024-01-01T05:25:20.718Z,4.03
2024-01-01T05:27:47.608Z,3.67
2024-01-01T05:30:30.740Z,3.60
2024-01-01T05:33:09.650Z,3.73
2024-01-01T05:35:40.377Z,4.20
2024-01-01T05:38:09.956Z,3.57
2024-01-01T05:40:39.906Z,3.17
2024-01-01T05:43:06.911Z,3.80
2024-01-01T05:45:33.618Z,3.90
2024-01-01T05:48:00.654Z,4.20
2024-01-01T05:50:29.451Z,4.37
2024-01-01T05:52:56.291Z,3.97
2024-01-01T05:55:23.077Z,4.30
2024-01-01T05:57:49.825Z,4.50
2024-01-01T06:00:18.442Z,3.90
2024-01-01T06:02:45.258Z,3.53
2024-01-01T06:05:12.399Z,3.50
2024-01-01T06:07:39.106Z,4.47
2024-01-01T06:10:06.331Z,4.10
2024-01-01T06:12:33.100Z,4.40
2024-01-01T06:15:00.012Z,4.03
2024-01-01T06:17:26.805Z,5.20
2024-01-01T06:19:53.919Z,4.30
2024-01-01T06:22:20.830Z,4.87
2024-01-01T06:24:47.983Z,4.20
2024-01-01T06:27:14.801Z,4.20
2024-01-01T06:29:41.864Z,4.67
2024-01-01T06:32:08.663Z,4.47
2024-01-01T06:34:35.369Z,3.37
2024-01-01T06:37:02.130Z,3.83
2024-01-01T06:39:28.868Z,3.37
2024-01-01T06:41:55.605Z,3.47
2024-01-01T06:44:26.324Z,2.70
2024-01-01T06:46:53.524Z,2.53
2024-01-01T06:49:20.247Z,3.20
2024-01-01T06:51:51.728Z,3.97
2024-01-01T06:54:18.976Z,4.50
2024-01-01T06:56:45.889Z,5.77
2024-01-01T06:59:13.941Z,4.83
2024-01-01T07:01:42.955Z,7.70
2024-01-01T07:04:10.631Z,6.17
2024-01-01T07:06:38.477Z,5.83
2024-01-01T07:09:06.627Z,5.50
2024-01-01T07:11:34.428Z,6.17
2024-01-01T07:14:01.105Z,5.30
2024-01-01T07:16:28.806Z,4.23
2024-01-01T07:18:56.011Z,3.13
2024-01-01T07:21:22.888Z,4.00
2024-01-01T07:23:49.610Z,4.30
2024-01-01T07:26:16.448Z,4.37
2024-01-01T07:28:44.188Z,4.60
2024-01-01T07:31:14.076Z,3.70
2024-01-01T07:33:41.045Z,3.20
2024-01-01T07:36:12.401Z,3.57
2024-01-01T07:38:43.093Z,3.67
2024-01-01T07:41:09.876Z,4.00
2024-01-01T07:43:36.790Z,4.60
2024-01-01T07:46:04.220Z,4.07
2024-01-01T07:48:31.339Z,4.03
2024-01-01T07:50:58.072Z,3.20
2024-01-01T07:53:25.168Z,3.93
2024-01-01T07:55:51.905Z,3.80
2024-01-01T07:58:18.867Z,4.63
2024-01-01T08:00:45.598Z,3.47
2024-01-01T08:03:12.976Z,3.40
2024-01-01T08:05:39.814Z,3.80
2024-01-01T08:08:07.955Z,4.80
2024-01-01T08:10:34.878Z,4.50
2024-01-01T08:13:01.991Z,4.27
2024-01-01T08:15:29.010Z,4.30
2024-01-01T08:17:55.932Z,4.23
2024-01-01T08:20:22.856Z,4.07
2024-01-01T08:22:49.736Z,3.60
2024-01-01T08:25:16.537Z,3.30
2024-01-01T08:27:43.513Z,3.97
2024-01-01T08:30:10.572Z,3.83
2024-01-01T08:32:37.551Z,3.17
2024-01-01T08:35:04.670Z,3.23
2024-01-01T08:37:31.959Z,3.20
2024-01-01T08:39:58.651Z,3.80
2024-01-01T08:42:26.921Z,2.83
2024-01-01T08:44:53.967Z,3.47
2024-01-01T08:47:20.808Z,2.90
2024-01-01T08:49:47.902Z,3.47
2024-01-01T08:52:14.675Z,3.20
2024-01-01T08:54:41.403Z,4.60
2024-01-01T08:57:08.264Z,3.97
2024-01-01T08:59:34.954Z,3.20
2024-01-01T09:02:01.954Z,3.20
2024-01-01T09:04:28.615Z,3.77
2024-01-01T09:06:55.490Z,3.10
2024-01-01T09:09:23.361Z,3.43
2024-01-01T09:11:50.353Z,4.77
2024-01-01T09:14:17.112Z,3.00
2024-01-01T09:16:44.311Z,3.97
2024-01-01T09:19:11.185Z,2.67
2024-01-01T09:21:38.161Z,3.90
2024-01-01T09:24:05.115Z,3.00
2024-01-01T09:26:32.022Z,4.07
2024-01-01T09:28:59.593Z,4.10
2024-01-01T09:31:27.264Z,3.90
2024-01-01T09:33:56.368Z,2.90
2024-01-01T09:36:23.126Z,4.53
2024-01-01T09:38:49.988Z,4.00
2024-01-01T09:41:16.819Z,3.87
2024-01-01T09:43:45.900Z,3.37
2024-01-01T09:46:14.222Z,3.30
2024-01-01T09:48:41.182Z,4.03
2024-01-01T09:51:08.068Z,3.03
2024-01-01T09:53:34.917Z,3.80
2024-01-01T09:56:01.610Z,3.20
2024-01-01T09:58:28.608Z,3.17
2024-01-01T10:01:12.843Z,4.60
2024-01-01T10:03:40.495Z,4.40
2024-01-01T10:06:09.668Z,4.13
2024-01-01T10:08:38.435Z,3.80
2024-01-01T10:11:21.782Z,3.47
2024-01-01T10:13:49.153Z,3.40
2024-01-01T10:16:26.974Z,3.83
2024-01-01T10:18:58.527Z,3.60
2024-01-01T10:21:32.072Z,3.60
2024-01-01T10:24:02.472Z,3.67
2024-01-01T10:26:40.424Z,3.50
2024-01-01T10:29:12.502Z,3.23
2024-01-01T10:31:49.651Z,3.47
2024-01-01T10:34:16.890Z,3.50
2024-01-01T10:36:44.825Z,3.10
2024-01-01T10:39:12.646Z,3.00
2024-01-01T10:41:40.812Z,3.30
2024-01-01T10:44:11.280Z,2.63
2024-01-01T10:46:40.202Z,2.80
2024-01-01T10:49:12.515Z,2.80
2024-01-01T10:52:12.828Z,2.60
2024-01-01T10:54:57.762Z,2.70
2024-01-01T10:57:50.902Z,3.13
2024-01-01T11:00:39.479Z,3.17
2024-01-01T11:03:07.758Z,3.00
2024-01-01T11:05:35.620Z,3.13
2024-01-01T11:08:04.191Z,2.73
2024-01-01T11:10:40.604Z,2.37
2024-01-01T11:13:31.339Z,3.17
2024-01-01T11:16:06.065Z,2.60
2024-01-01T11:18:37.132Z,2.33
2024-01-01T11:21:09.407Z,2.77
2024-01-01T11:23:43.208Z,2.20
2024-01-01T11:26:34.263Z,2.53
2024-01-01T11:29:19.626Z,2.90
2024-01-01T11:31:46.681Z,2.80
2024-01-01T11:34:24.431Z,2.50
2024-01-01T11:36:54.500Z,2.57
2024-01-01T11:39:26.341Z,2.90
2024-01-01T11:41:53.635Z,3.27
2024-01-01T11:44:24.497Z,3.13
2024-01-01T11:46:52.779Z,2.70
2024-01-01T11:49:19.894Z,2.47
2024-01-01T11:51:57.213Z,2.93
2024-01-01T11:54:27.824Z,3.20
2024-01-01T11:56:57.730Z,2.27
2024-01-01T11:59:26.370Z,2.63
2024-01-01T12:01:53.529Z,2.63
2024-01-01T12:04:22.442Z,2.20
2024-01-01T12:06:55.042Z,2.50
2024-01-01T12:09:22.702Z,3.10
2024-01-01T12:11:49.674Z,3.40
2024-01-01T12:14:24.098Z,3.40
2024-01-01T12:16:50.934Z,2.77
2024-01-01T12:19:24.158Z,3.03
2024-01-01T12:21:53.318Z,3.30
2024-01-01T12:24:23.371Z,2.60
2024-01-01T12:26:53.437Z,3.23
2024-01-01T12:29:21.682Z,2.60
2024-01-01T12:31:50.311Z,2.77
2024-01-01T12:34:18.755Z,2.97
2024-01-01T12:36:47.991Z,2.93
2024-01-01T12:39:18.770Z,3.00
2024-01-01T12:41:46.248Z,2.57
2024-01-01T12:44:13.225Z,2.80
2024-01-01T12:46:41.426Z,3.03
2024-01-01T12:49:08.246Z,3.03
2024-01-01T12:51:36.937Z,3.27
2024-01-01T12:54:04.786Z,3.23
2024-01-01T12:56:31.688Z,3.80
2024-01-01T12:58:58.738Z,3.30
2024-01-01T13:01:25.533Z,3.97
2024-01-01T13:03:52.553Z,3.60
2024-01-01T13:06:20.944Z,3.40
2024-01-01T13:08:50.231Z,3.73
2024-01-01T13:11:17.499Z,2.87
2024-01-01T13:13:45.483Z,4.13
2024-01-01T13:16:12.539Z,3.87
2024-01-01T13:18:39.536Z,3.37
2024-01-01T13:21:06.904Z,4.13
2024-01-01T13:23:34.118Z,3.37
2024-01-01T13:26:04.341Z,4.27
2024-01-01T13:28:32.278Z,4.00
2024-01-01T13:31:01.176Z,3.90
2024-01-01T13:33:28.930Z,3.57
2024-01-01T13:35:56.072Z,3.70
2024-01-01T13:38:23.163Z,4.20
2024-01-01T13:40:50.039Z,4.17
2024-01-01T13:43:20.025Z,3.60
2024-01-01T13:45:47.019Z,4.33
2024-01-01T13:48:14.884Z,4.03
2024-01-01T13:50:43.782Z,4.30
2024-01-01T13:53:10.713Z,4.07
2024-01-01T13:55:37.807Z,4.20
2024-01-01T13:58:06.550Z,4.27
2024-01-01T14:00:39.299Z,4.00
2024-01-01T14:03:07.069Z,4.00
2024-01-01T14:05:34.319Z,3.90
2024-01-01T14:08:01.274Z,3.40
2024-01-01T14:10:28.402Z,3.83
2024-01-01T14:12:55.732Z,4.20
2024-01-01T14:15:24.571Z,3.97
2024-01-01T14:17:54.753Z,3.90
2024-01-01T14:20:22.381Z,4.00
2024-01-01T14:22:49.585Z,4.27
2024-01-01T14:25:16.847Z,4.70
2024-01-01T14:27:43.714Z,4.10
2024-01-01T14:30:11.574Z,4.97
2024-01-01T14:32:38.846Z,4.93
2024-01-01T14:35:06.495Z,4.37
2024-01-01T14:37:34.569Z,4.07
2024-01-01T14:40:01.607Z,4.10
2024-01-01T14:42:28.319Z,3.80
2024-01-01T14:44:56.257Z,4.23
2024-01-01T14:47:23.172Z,4.27
2024-01-01T14:49:53.220Z,4.70
2024-01-01T14:52:20.078Z,4.20
2024-01-01T14:54:46.996Z,4.30
2024-01-01T14:57:14.025Z,4.50
2024-01-01T14:59:42.357Z,4.20
2024-01-01T15:02:09.542Z,4.63
2024-01-01T15:04:38.565Z,4.90
2024-01-01T15:07:05.484Z,4.57
2024-01-01T15:09:35.169Z,5.27
2024-01-01T15:12:04.096Z,4.47
2024-01-01T15:14:31.087Z,5.17
2024-01-01T15:16:57.844Z,4.43
2024-01-01T15:19:24.726Z,5.63
2024-01-01T15:21:52.031Z,5.50
2024-01-01T15:24:18.912Z,4.83
2024-01-01T15:26:45.609Z,5.37
2024-01-01T15:29:12.824Z,4.53
2024-01-01T15:31:39.712Z,5.27
2024-01-01T15:34:06.561Z,5.40
2024-01-01T15:36:33.787Z,4.90
2024-01-01T15:39:00.617Z,5.33
2024-01-01T15:41:27.810Z,5.70
2024-01-01T15:43:54.652Z,4.40
2024-01-01T15:46:21.465Z,4.50
2024-01-01T15:48:48.563Z,5.60
2024-01-01T15:51:21.687Z,5.07
2024-01-01T15:53:52.684Z,4.07
2024-01-01T15:56:22.618Z,4.73
2024-01-01T15:58:49.398Z,7.23
2024-01-01T16:01:16.177Z,16.87
2024-01-01T16:03:43.247Z,4.90
2024-01-01T16:06:10.410Z,5.50
2024-01-01T16:08:37.187Z,5.07
2024-01-01T16:11:03.974Z,5.60
2024-01-01T16:13:30.906Z,5.07
2024-01-01T16:15:57.644Z,5.00
2024-01-01T16:18:25.642Z,5.17
2024-01-01T16:20:52.527Z,5.13
2024-01-01T16:23:23.294Z,4.70
2024-01-01T16:25:51.025Z,5.17
2024-01-01T16:28:17.891Z,4.57
2024-01-01T16:30:44.765Z,4.47
2024-01-01T16:33:11.692Z,5.47
2024-01-01T16:35:38.423Z,4.40
2024-01-01T16:38:05.942Z,4.30
2024-01-01T16:40:32.910Z,4.47
2024-01-01T16:42:59.783Z,4.97
2024-01-01T16:45:26.670Z,5.13
2024-01-01T16:47:54.013Z,4.80
2024-01-01T16:50:21.009Z,4.87
2024-01-01T16:52:48.013Z,4.67
2024-01-01T16:55:15.020Z,4.77
2024-01-01T16:57:42.940Z,4.47
2024-01-01T17:00:10.138Z,5.40
2024-01-01T17:02:37.150Z,4.53
2024-01-01T17:05:04.767Z,4.70
2024-01-01T17:07:31.581Z,4.30
2024-01-01T17:09:58.480Z,4.63
2024-01-01T17:12:25.570Z,5.20
2024-01-01T17:14:52.410Z,4.30
2024-01-01T17:17:19.193Z,5.20
2024-01-01T17:19:46.412Z,5.53
2024-01-01T17:22:13.221Z,5.53
2024-01-01T17:24:41.188Z,5.50
2024-01-01T17:27:10.916Z,5.90
2024-01-01T17:29:39.759Z,5.33
2024-01-01T17:32:06.819Z,5.40
2024-01-01T17:34:33.835Z,4.87
2024-01-01T17:37:00.664Z,5.40
2024-01-01T17:39:27.566Z,5.70
2024-01-01T17:41:54.599Z,5.17
2024-01-01T17:44:21.349Z,5.93
2024-01-01T17:46:50.319Z,4.97
2024-01-01T17:49:17.446Z,5.43
2024-01-01T17:51:44.281Z,5.40
2024-01-01T17:54:11.074Z,5.73
2024-01-01T17:56:45.449Z,5.03
2024-01-01T17:59:13.467Z,5.03
2024-01-01T18:01:41.592Z,4.57
2024-01-01T18:04:09.784Z,5.43
2024-01-01T18:06:37.103Z,5.30
2024-01-01T18:09:04.438Z,4.83
2024-01-01T18:11:31.469Z,4.97
2024-01-01T18:13:58.352Z,4.77
2024-01-01T18:16:26.417Z,4.80
2024-01-01T18:18:53.802Z,5.57
2024-01-01T18:21:20.964Z,9.70
2024-01-01T18:23:47.904Z,4.57
2024-01-01T18:26:17.142Z,4.40
2024-01-01T18:28:44.102Z,4.47
2024-01-01T18:31:18.556Z,4.20
2024-01-01T18:33:47.680Z,4.37
2024-01-01T18:36:18.618Z,3.83
2024-01-01T18:38:48.943Z,4.57
2024-01-01T18:41:17.136Z,4.30
2024-01-01T18:43:43.955Z,4.00
2024-01-01T18:46:15.276Z,4.50
2024-01-01T18:48:43.286Z,4.77
2024-01-01T18:51:10.477Z,4.23
2024-01-01T18:53:40.185Z,4.53
2024-01-01T18:56:08.687Z,4.13
2024-01-01T18:58:35.972Z,4.20
2024-01-01T19:01:03.072Z,4.60
2024-01-01T19:03:30.144Z,4.13
2024-01-01T19:05:58.383Z,5.40
2024-01-01T19:08:26.375Z,4.30
2024-01-01T19:10:53.937Z,6.87
2024-01-01T19:13:20.686Z,4.70
2024-01-01T19:15:47.579Z,4.27
2024-01-01T19:18:14.771Z,4.00
2024-01-01T19:20:41.648Z,4.37
2024-01-01T19:23:08.747Z,4.60
2024-01-01T19:25:35.977Z,3.90
2024-01-01T19:28:03.888Z,4.40
2024-01-01T19:30:31.138Z,4.73
2024-01-01T19:32:57.902Z,4.17
2024-01-01T19:35:28.210Z,3.73
2024-01-01T19:37:55.189Z,3.90
2024-01-01T19:40:22.522Z,3.60
2024-01-01T19:42:50.383Z,3.80
2024-01-01T19:45:17.407Z,4.03
2024-01-01T19:47:44.544Z,3.20
2024-01-01T19:50:14.964Z,3.80
2024-01-01T19:52:42.767Z,3.83
2024-01-01T19:55:09.598Z,3.53
2024-01-01T19:57:41.861Z,3.67
2024-01-01T20:00:10.656Z,3.60
2024-01-01T20:02:37.940Z,3.77
2024-01-01T20:05:05.735Z,4.00
2024-01-01T20:07:33.536Z,3.63
2024-01-01T20:10:00.697Z,3.20
2024-01-01T20:12:30.104Z,3.77
2024-01-01T20:14:57.243Z,3.37
2024-01-01T20:17:24.144Z,3.43
2024-01-01T20:19:53.281Z,3.63
2024-01-01T20:22:20.195Z,3.67
2024-01-01T20:24:46.944Z,3.93
2024-01-01T20:27:13.827Z,4.00
2024-01-01T20:29:40.856Z,3.63
2024-01-01T20:32:07.855Z,3.43
2024-01-01T20:34:35.489Z,3.63
2024-01-01T20:37:02.304Z,3.60
2024-01-01T20:39:29.124Z,3.70
2024-01-01T20:41:57.879Z,4.03
2024-01-01T20:44:26.253Z,3.70
2024-01-01T20:46:53.299Z,3.57
2024-01-01T20:49:20.435Z,4.03
2024-01-01T20:51:47.532Z,3.90
2024-01-01T20:54:15.006Z,4.60
2024-01-01T20:56:44.280Z,4.33
2024-01-01T20:59:15.041Z,3.90
2024-01-01T21:01:42.210Z,4.57
2024-01-01T21:04:09.357Z,4.00
2024-01-01T21:06:37.258Z,4.07
2024-01-01T21:09:06.297Z,3.30
2024-01-01T21:11:33.256Z,3.90
2024-01-01T21:14:00.538Z,3.67
2024-01-01T21:16:27.527Z,3.90
2024-01-01T21:18:54.311Z,3.27
2024-01-01T21:21:29.342Z,4.10
2024-01-01T21:23:57.908Z,3.70
2024-01-01T21:26:24.707Z,3.77
2024-01-01T21:29:03.451Z,3.67
2024-01-01T21:31:33.009Z,4.00
2024-01-01T21:34:02.117Z,3.60
2024-01-01T21:36:29.874Z,3.43
2024-01-01T21:38:58.622Z,3.30
2024-01-01T21:41:30.022Z,3.20
2024-01-01T21:44:00.662Z,3.70
2024-01-01T21:46:28.277Z,3.40
2024-01-01T21:48:55.072Z,3.43
2024-01-01T21:51:22.369Z,3.57
2024-01-01T21:53:51.800Z,3.40
2024-01-01T22:29:49.159Z,3.93
2024-01-01T22:32:16.192Z,3.70
2024-01-01T22:34:43.404Z,4.07
2024-01-01T22:37:10.453Z,4.40
2024-01-01T22:39:37.834Z,3.77
2024-01-01T22:42:04.970Z,4.10
2024-01-01T22:44:31.756Z,4.20
2024-01-01T22:46:59.149Z,3.20
2024-01-01T22:49:26.180Z,3.50
2024-01-01T22:51:52.945Z,3.47
2024-01-01T22:54:19.696Z,4.37
2024-01-01T22:56:46.607Z,8.43
2024-01-01T22:59:13.582Z,12.53
2024-01-01T23:01:40.445Z,9.23
2024-01-01T23:04:07.258Z,7.20
2024-01-01T23:06:34.713Z,7.83
2024-01-01T23:09:01.435Z,8.10
2024-01-01T23:11:28.294Z,6.50
2024-01-01T23:13:55.106Z,8.10
2024-01-01T23:16:21.795Z,6.23
2024-01-01T23:18:48.627Z,5.77
2024-01-01T23:21:15.883Z,3.50
2024-01-01T23:23:42.919Z,3.23
2024-01-01T23:26:09.787Z,3.13
2024-01-01T23:28:38.431Z,3.37
2024-01-01T23:31:05.226Z,3.10
2024-01-01T23:33:32.473Z,3.30
2024-01-01T23:35:59.440Z,3.20
2024-01-01T23:38:26.325Z,3.00
2024-01-01T23:40:53.783Z,2.93
2024-01-01T23:43:20.653Z,3.30
2024-01-01T23:45:47.364Z,2.80
2024-01-01T23:48:14.605Z,2.90
2024-01-01T23:50:41.782Z,2.90
2024-01-01T23:53:08.879Z,3.07
2024-01-01T23:55:35.918Z,2.90
2024-01-01T23:58:02.872Z,3.07
